sensor_id;sensor_type;location;lat;lon;timestamp;temperature;humidity
3007;DHT22;1513;47.650;10.720;2024-02-04T04:56:25;5.60;99.90
3007;DHT22;1513;47.650;10.720;2024-02-04T04:58:51;5.70;99.90
3007;DHT22;1513;47.650;10.720;2024-02-04T05:01:17;5.70;99.90
3007;DHT22;1513;47.650;10.720;2024-02-04T05:03:43;5.50;99.90
3007;DHT22;1513;47.650;10.720;2024-02-04T05:06:09;5.40;99.90
3007;DHT22;1513;47.650;10.720;2024-02-04T05:08:35;5.30;99.90
3007;DHT22;1513;47.650;10.720;2024-02-04T05:11:01;5.10;99.90
3007;DHT22;1513;47.650;10.720;2024-02-04T05:13:27;5.00;99.90
3007;DHT22;1513;47.650;10.720;2024-02-04T05:15:53;4.80;99.90
3007;DHT22;1513;47.650;10.720;2024-02-04T05:18:18;4.70;99.90
3007;DHT22;1513;47.650;10.720;2024-02-04T05:20:44;4.60;99.90
3007;DHT22;1513;47.650;10.720;2024-02-04T05:23:10;4.50;99.90
3007;DHT22;1513;47.650;10.720;2024-02-04T05:25:36;4.50;99.90
3007;DHT22;1513;47.650;10.720;2024-02-04T05:28:02;4.40;99.90
3007;DHT22;1513;47.650;10.720;2024-02-04T05:30:28;4.50;99.90
3007;DHT22;1513;47.650;10.720;2024-02-04T05:32:54;4.50;99.90
3007;DHT22;1513;47.650;10.720;2024-02-04T05:35:20;4.40;99.90
3007;DHT22;1513;47.650;10.720;2024-02-04T05:37:46;4.50;99.90
3007;DHT22;1513;47.650;10.720;2024-02-04T05:40:12;4.50;99.90
3007;DHT22;1513;47.650;10.720;2024-02-04T05:42:39;4.40;99.90
3007;DHT22;1513;47.650;10.720;2024-02-04T05:45:05;4.40;99.90
3007;DHT22;1513;47.650;10.720;2024-02-04T05:47:32;4.10;99.90
3007;DHT22;1513;47.650;10.720;2024-02-04T05:49:58;4.10;99.90
3007;DHT22;1513;47.650;10.720;2024-02-04T05:52:24;4.10;99.90
3007;DHT22;1513;47.650;10.720;2024-02-04T05:54:49;4.00;99.90
3007;DHT22;1513;47.650;10.720;2024-02-04T05:57:15;4.00;99.90
3007;DHT22;1513;47.650;10.720;2024-02-04T05:59:41;3.90;99.90
3007;DHT22;1513;47.650;10.720;2024-02-04T06:02:07;3.90;99.90
3007;DHT22;1513;47.650;10.720;2024-02-04T06:04:32;3.80;99.90
3007;DHT22;1513;47.650;10.720;2024-02-04T06:06:58;3.70;99.90
3007;DHT22;1513;47.650;10.720;2024-02-04T06:09:24;3.90;99.90
3007;DHT22;1513;47.650;10.720;2024-02-04T06:11:50;3.80;99.90
3007;DHT22;1513;47.650;10.720;2024-02-04T06:14:16;4.00;99.90
3007;DHT22;1513;47.650;10.720;2024-02-04T06:16:42;4.30;99.90
3007;DHT22;1513;47.650;10.720;2024-02-04T06:19:07;4.40;99.90
3007;DHT22;1513;47.650;10.720;2024-02-04T06:21:34;4.40;99.90
3007;DHT22;1513;47.650;10.720;2024-02-04T06:24:00;4.40;99.90
3007;DHT22;1513;47.650;10.720;2024-02-04T06:26:26;4.40;99.90
3007;DHT22;1513;47.650;10.720;2024-02-04T06:28:52;4.40;99.90
3007;DHT22;1513;47.650;10.720;2024-02-04T06:31:18;4.80;99.90
3007;DHT22;1513;47.650;10.720;2024-02-04T06:33:43;4.80;99.90
3007;DHT22;1513;47.650;10.720;2024-02-04T06:36:10;5.00;99.90
3007;DHT22;1513;47.650;10.720;2024-02-04T06:38:36;4.90;99.90
3007;DHT22;1513;47.650;10.720;2024-02-04T06:41:02;5.20;99.90
3007;DHT22;1513;47.650;10.720;2024-02-04T06:43:28;5.60;99.90
3007;DHT22;1513;47.650;10.720;2024-02-04T06:45:54;5.80;99.90
3007;DHT22;1513;47.650;10.720;2024-02-04T06:48:19;6.40;99.90
3007;DHT22;1513;47.650;10.720;2024-02-04T06:50:45;6.50;99.90
3007;DHT22;1513;47.650;10.720;2024-02-04T06:53:16;6.50;99.90
3007;DHT22;1513;47.650;10.720;2024-02-04T06:55:42;6.50;99.90
3007;DHT22;1513;47.650;10.720;2024-02-04T06:58:08;6.40;99.90
3007;DHT22;1513;47.650;10.720;2024-02-04T07:00:33;6.40;99.90
3007;DHT22;1513;47.650;10.720;2024-02-04T07:02:59;6.30;99.90
3007;DHT22;1513;47.650;10.720;2024-02-04T07:05:25;6.40;99.90
3007;DHT22;1513;47.650;10.720;2024-02-04T07:07:51;6.50;99.90
3007;DHT22;1513;47.650;10.720;2024-02-04T07:10:17;6.50;99.90
3007;DHT22;1513;47.650;10.720;2024-02-04T07:12:44;6.70;99.90
3007;DHT22;1513;47.650;10.720;2024-02-04T07:15:10;6.80;99.90
3007;DHT22;1513;47.650;10.720;2024-02-04T07:17:36;6.70;99.90
3007;DHT22;1513;47.650;10.720;2024-02-04T07:20:02;6.70;99.90
3007;DHT22;1513;47.650;10.720;2024-02-04T07:22:28;6.60;99.90
3007;DHT22;1513;47.650;10.720;2024-02-04T07:24:54;6.50;99.90
3007;DHT22;1513;47.650;10.720;2024-02-04T07:27:20;6.40;99.90
3007;DHT22;1513;47.650;10.720;2024-02-04T07:29:46;6.30;99.90
3007;DHT22;1513;47.650;10.720;2024-02-04T07:32:14;6.10;99.90
3007;DHT22;1513;47.650;10.720;2024-02-04T07:34:40;6.20;99.90
3007;DHT22;1513;47.650;10.720;2024-02-04T07:37:06;6.50;99.90
3007;DHT22;1513;47.650;10.720;2024-02-04T07:39:32;6.80;99.90
3007;DHT22;1513;47.650;10.720;2024-02-04T07:41:58;6.90;99.90
3007;DHT22;1513;47.650;10.720;2024-02-04T07:44:28;7.20;99.90
3007;DHT22;1513;47.650;10.720;2024-02-04T07:46:54;7.20;99.90
3007;DHT22;1513;47.650;10.720;2024-02-04T07:49:20;7.40;99.90
3007;DHT22;1513;47.650;10.720;2024-02-04T07:51:46;7.40;99.90
3007;DHT22;1513;47.650;10.720;2024-02-04T07:54:12;7.40;99.90
3007;DHT22;1513;47.650;10.720;2024-02-04T07:56:38;7.40;99.90
3007;DHT22;1513;47.650;10.720;2024-02-04T07:59:03;7.30;99.90
3007;DHT22;1513;47.650;10.720;2024-02-04T08:01:30;7.10;99.90
3007;DHT22;1513;47.650;10.720;2024-02-04T08:03:56;7.10;99.90
3007;DHT22;1513;47.650;10.720;2024-02-04T08:06:22;6.90;99.90
3007;DHT22;1513;47.650;10.720;2024-02-04T08:08:47;6.90;99.90
3007;DHT22;1513;47.650;10.720;2024-02-04T08:11:17;7.00;99.90
3007;DHT22;1513;47.650;10.720;2024-02-04T08:13:43;7.00;99.90
3007;DHT22;1513;47.650;10.720;2024-02-04T08:16:10;7.20;99.90
3007;DHT22;1513;47.650;10.720;2024-02-04T08:18:36;7.30;99.90
3007;DHT22;1513;47.650;10.720;2024-02-04T08:21:02;7.60;99.90
3007;DHT22;1513;47.650;10.720;2024-02-04T08:23:29;7.70;99.90
3007;DHT22;1513;47.650;10.720;2024-02-04T08:25:54;8.00;99.90
3007;DHT22;1513;47.650;10.720;2024-02-04T08:28:22;8.20;99.90
3007;DHT22;1513;47.650;10.720;2024-02-04T08:30:49;8.40;99.90
3007;DHT22;1513;47.650;10.720;2024-02-04T08:33:15;8.60;99.90
3007;DHT22;1513;47.650;10.720;2024-02-04T08:35:41;8.50;99.90
3007;DHT22;1513;47.650;10.720;2024-02-04T08:38:07;8.50;99.90
3007;DHT22;1513;47.650;10.720;2024-02-04T08:40:32;8.60;99.90
3007;DHT22;1513;47.650;10.720;2024-02-04T08:42:58;8.80;99.90
3007;DHT22;1513;47.650;10.720;2024-02-04T08:45:24;9.10;99.90
3007;DHT22;1513;47.650;10.720;2024-02-04T08:47:50;9.40;99.90
3007;DHT22;1513;47.650;10.720;2024-02-04T08:50:16;9.70;99.90
3007;DHT22;1513;47.650;10.720;2024-02-04T08:52:42;9.90;99.90
3007;DHT22;1513;47.650;10.720;2024-02-04T08:55:08;10.20;99.90
3007;DHT22;1513;47.650;10.720;2024-02-04T08:57:34;10.30;99.90
3007;DHT22;1513;47.650;10.720;2024-02-04T09:00:00;10.40;99.90
3007;DHT22;1513;47.650;10.720;2024-02-04T09:02:26;10.50;99.90
3007;DHT22;1513;47.650;10.720;2024-02-04T09:04:51;10.60;99.90
3007;DHT22;1513;47.650;10.720;2024-02-04T09:07:18;10.70;99.90
3007;DHT22;1513;47.650;10.720;2024-02-04T09:09:44;10.80;99.90
3007;DHT22;1513;47.650;10.720;2024-02-04T09:12:10;11.00;99.90
3007;DHT22;1513;47.650;10.720;2024-02-04T09:14:36;10.90;99.90
3007;DHT22;1513;47.650;10.720;2024-02-04T09:17:05;10.90;99.90
3007;DHT22;1513;47.650;10.720;2024-02-04T09:19:32;10.90;99.90
3007;DHT22;1513;47.650;10.720;2024-02-04T09:21:58;10.90;99.90
3007;DHT22;1513;47.650;10.720;2024-02-04T09:24:30;10.90;99.90
3007;DHT22;1513;47.650;10.720;2024-02-04T09:26:55;11.00;99.90
3007;DHT22;1513;47.650;10.720;2024-02-04T09:29:21;11.10;99.90
3007;DHT22;1513;47.650;10.720;2024-02-04T09:31:47;11.10;99.90
3007;DHT22;1513;47.650;10.720;2024-02-04T09:34:15;11.20;99.90
3007;DHT22;1513;47.650;10.720;2024-02-04T09:36:41;11.20;99.90
3007;DHT22;1513;47.650;10.720;2024-02-04T09:39:09;11.20;99.90
3007;DHT22;1513;47.650;10.720;2024-02-04T09:41:34;11.20;99.90
3007;DHT22;1513;47.650;10.720;2024-02-04T09:44:01;11.30;99.90
3007;DHT22;1513;47.650;10.720;2024-02-04T09:46:29;11.30;99.90
3007;DHT22;1513;47.650;10.720;2024-02-04T09:48:55;11.30;99.90
3007;DHT22;1513;47.650;10.720;2024-02-04T09:51:22;11.40;99.90
3007;DHT22;1513;47.650;10.720;2024-02-04T09:53:52;11.50;99.90
3007;DHT22;1513;47.650;10.720;2024-02-04T09:56:19;11.50;99.90
3007;DHT22;1513;47.650;10.720;2024-02-04T09:58:48;11.50;99.90
3007;DHT22;1513;47.650;10.720;2024-02-04T10:01:19;11.60;99.90
3007;DHT22;1513;47.650;10.720;2024-02-04T10:03:47;11.60;99.90
3007;DHT22;1513;47.650;10.720;2024-02-04T10:06:13;11.70;99.90
3007;DHT22;1513;47.650;10.720;2024-02-04T10:08:39;11.70;99.90
3007;DHT22;1513;47.650;10.720;2024-02-04T10:11:05;11.80;99.90
3007;DHT22;1513;47.650;10.720;2024-02-04T10:13:45;11.80;99.90
3007;DHT22;1513;47.650;10.720;2024-02-04T10:16:15;11.80;99.90
3007;DHT22;1513;47.650;10.720;2024-02-04T10:18:45;11.80;99.90
3007;DHT22;1513;47.650;10.720;2024-02-04T10:21:19;11.70;99.90
3007;DHT22;1513;47.650;10.720;2024-02-04T10:23:50;11.60;99.90
3007;DHT22;1513;47.650;10.720;2024-02-04T10:26:16;11.50;99.90
3007;DHT22;1513;47.650;10.720;2024-02-04T10:28:45;11.60;99.90
3007;DHT22;1513;47.650;10.720;2024-02-04T10:31:13;11.60;99.90
3007;DHT22;1513;47.650;10.720;2024-02-04T10:33:39;11.60;99.90
3007;DHT22;1513;47.650;10.720;2024-02-04T10:36:06;11.50;99.90
3007;DHT22;1513;47.650;10.720;2024-02-04T10:38:32;11.50;99.90
3007;DHT22;1513;47.650;10.720;2024-02-04T10:41:02;11.40;99.90
3007;DHT22;1513;47.650;10.720;2024-02-04T10:43:34;11.40;99.90
3007;DHT22;1513;47.650;10.720;2024-02-04T10:48:48;11.20;99.90
3007;DHT22;1513;47.650;10.720;2024-02-04T10:51:36;11.20;99.90
3007;DHT22;1513;47.650;10.720;2024-02-04T10:54:05;11.20;99.90
3007;DHT22;1513;47.650;10.720;2024-02-04T10:56:43;11.30;99.90
3007;DHT22;1513;47.650;10.720;2024-02-04T10:59:10;11.50;99.90
3007;DHT22;1513;47.650;10.720;2024-02-04T11:01:41;11.50;99.90
3007;DHT22;1513;47.650;10.720;2024-02-04T11:04:10;11.60;99.90
